sensor_id;sensor_type;location;lat;lon;timestamp;pressure;altitude;pressure_sealevel;temperature;humidity
46718;BME280;32448;44.960;-0.698;2023-04-20T00:00:01;100890.22;;;9.55;100.00
46718;BME280;32448;44.960;-0.698;2023-04-20T00:02:38;100889.31;;;9.53;100.00
46718;BME280;32448;44.960;-0.698;2023-04-20T00:05:06;100876.28;;;9.54;100.00
46718;BME280;32448;44.960;-0.698;2023-04-20T00:07:33;100874.44;;;9.50;100.00
46718;BME280;32448;44.960;-0.698;2023-04-20T00:10:01;100874.19;;;9.39;100.00
46718;BME280;32448;44.960;-0.698;2023-04-20T00:12:29;100881.31;;;9.45;100.00
46718;BME280;32448;44.960;-0.698;2023-04-20T00:14:56;100872.50;;;9.41;100.00
46718;BME280;32448;44.960;-0.698;2023-04-20T00:17:23;100867.22;;;9.37;100.00
46718;BME280;32448;44.960;-0.698;2023-04-20T00:19:51;100861.00;;;9.32;100.00
46718;BME280;32448;44.960;-0.698;2023-04-20T00:22:18;100866.22;;;9.32;100.00
46718;BME280;32448;44.960;-0.698;2023-04-20T00:24:45;100865.16;;;9.24;100.00
46718;BME280;32448;44.960;-0.698;2023-04-20T00:27:12;100858.13;;;9.21;100.00
46718;BME280;32448;44.960;-0.698;2023-04-20T00:29:39;100855.53;;;9.21;100.00
46718;BME280;32448;44.960;-0.698;2023-04-20T00:32:06;100848.41;;;9.14;100.00
46718;BME280;32448;44.960;-0.698;2023-04-20T00:34:33;100850.09;;;9.12;100.00
46718;BME280;32448;44.960;-0.698;2023-04-20T00:37:00;100849.09;;;9.07;100.00
46718;BME280;32448;44.960;-0.698;2023-04-20T00:39:27;100845.56;;;9.03;100.00
46718;BME280;32448;44.960;-0.698;2023-04-20T00:41:54;100834.25;;;9.03;100.00
46718;BME280;32448;44.960;-0.698;2023-04-20T00:44:29;100834.06;;;8.97;100.00
46718;BME280;32448;44.960;-0.698;2023-04-20T00:46:56;100827.09;;;8.96;100.00
46718;BME280;32448;44.960;-0.698;2023-04-20T00:49:25;100828.59;;;8.86;100.00
46718;BME280;32448;44.960;-0.698;2023-04-20T00:51:52;100826.97;;;8.90;100.00
46718;BME280;32448;44.960;-0.698;2023-04-20T00:54:19;100825.94;;;8.85;100.00
46718;BME280;32448;44.960;-0.698;2023-04-20T00:56:47;100821.56;;;8.82;100.00
46718;BME280;32448;44.960;-0.698;2023-04-20T00:59:14;100819.72;;;8.78;100.00
46718;BME280;32448;44.960;-0.698;2023-04-20T01:01:42;100812.59;;;8.71;100.00
46718;BME280;32448;44.960;-0.698;2023-04-20T01:04:09;100815.09;;;8.66;100.00
46718;BME280;32448;44.960;-0.698;2023-04-20T01:06:37;100814.16;;;8.64;100.00
46718;BME280;32448;44.960;-0.698;2023-04-20T01:09:04;100811.56;;;8.64;100.00
46718;BME280;32448;44.960;-0.698;2023-04-20T01:11:31;100800.16;;;8.59;100.00
46718;BME280;32448;44.960;-0.698;2023-04-20T01:13:58;100800.81;;;8.52;100.00
46718;BME280;32448;44.960;-0.698;2023-04-20T01:16:25;100793.00;;;8.52;100.00
46718;BME280;32448;44.960;-0.698;2023-04-20T01:18:53;100798.16;;;8.51;100.00
46718;BME280;32448;44.960;-0.698;2023-04-20T01:21:20;100792.16;;;8.53;100.00
46718;BME280;32448;44.960;-0.698;2023-04-20T01:23:48;100789.41;;;8.47;100.00
46718;BME280;32448;44.960;-0.698;2023-04-20T01:26:16;100794.44;;;8.41;100.00
46718;BME280;32448;44.960;-0.698;2023-04-20T01:28:43;100786.50;;;8.35;100.00
46718;BME280;32448;44.960;-0.698;2023-04-20T01:31:14;100786.44;;;8.33;100.00
46718;BME280;32448;44.960;-0.698;2023-04-20T01:33:41;100784.59;;;8.31;100.00
46718;BME280;32448;44.960;-0.698;2023-04-20T01:36:08;100786.22;;;8.26;100.00
46718;BME280;32448;44.960;-0.698;2023-04-20T01:38:35;100782.84;;;8.30;100.00
46718;BME280;32448;44.960;-0.698;2023-04-20T01:41:03;100788.88;;;8.29;100.00
46718;BME280;32448;44.960;-0.698;2023-04-20T01:43:31;100787.09;;;8.26;100.00
46718;BME280;32448;44.960;-0.698;2023-04-20T01:45:58;100789.63;;;8.23;100.00
46718;BME280;32448;44.960;-0.698;2023-04-20T01:48:26;100776.59;;;8.23;100.00
46718;BME280;32448;44.960;-0.698;2023-04-20T01:50:53;100774.78;;;8.21;100.00
46718;BME280;32448;44.960;-0.698;2023-04-20T01:53:20;100787.72;;;8.18;100.00
46718;BME280;32448;44.960;-0.698;2023-04-20T01:55:49;100785.97;;;8.17;100.00
46718;BME280;32448;44.960;-0.698;2023-04-20T01:58:16;100781.53;;;8.13;100.00
46718;BME280;32448;44.960;-0.698;2023-04-20T02:00:43;100769.31;;;8.10;100.00
46718;BME280;32448;44.960;-0.698;2023-04-20T02:03:10;100773.56;;;8.08;100.00
46718;BME280;32448;44.960;-0.698;2023-04-20T02:05:37;100777.78;;;8.03;100.00
46718;BME280;32448;44.960;-0.698;2023-04-20T02:08:04;100767.25;;;7.98;100.00
46718;BME280;32448;44.960;-0.698;2023-04-20T02:10:31;100772.50;;;8.00;100.00
46718;BME280;32448;44.960;-0.698;2023-04-20T02:12:59;100771.50;;;7.95;100.00
46718;BME280;32448;44.960;-0.698;2023-04-20T02:15:30;100768.81;;;7.92;100.00
46718;BME280;32448;44.960;-0.698;2023-04-20T02:17:57;100771.22;;;7.86;100.00
46718;BME280;32448;44.960;-0.698;2023-04-20T02:20:24;100763.22;;;7.78;100.00
46718;BME280;32448;44.960;-0.698;2023-04-20T02:22:52;100775.34;;;7.78;100.00
46718;BME280;32448;44.960;-0.698;2023-04-20T02:25:19;100768.38;;;7.77;100.00
46718;BME280;32448;44.960;-0.698;2023-04-20T02:27:46;100767.28;;;7.68;100.00
46718;BME280;32448;44.960;-0.698;2023-04-20T02:30:13;100771.41;;;7.60;100.00
46718;BME280;32448;44.960;-0.698;2023-04-20T02:32:41;100773.81;;;7.54;100.00
46718;BME280;32448;44.960;-0.698;2023-04-20T02:35:09;100774.78;;;7.58;100.00
46718;BME280;32448;44.960;-0.698;2023-04-20T02:37:36;100775.66;;;7.58;100.00
46718;BME280;32448;44.960;-0.698;2023-04-20T02:40:03;100772.84;;;7.51;100.00
46718;BME280;32448;44.960;-0.698;2023-04-20T02:42:30;100773.91;;;7.57;100.00
46718;BME280;32448;44.960;-0.698;2023-04-20T02:44:59;100778.91;;;7.50;100.00
46718;BME280;32448;44.960;-0.698;2023-04-20T02:47:26;100777.84;;;7.45;100.00
46718;BME280;32448;44.960;-0.698;2023-04-20T02:49:54;100782.31;;;7.49;100.00
46718;BME280;32448;44.960;-0.698;2023-04-20T02:52:22;100777.97;;;7.48;100.00
46718;BME280;32448;44.960;-0.698;2023-04-20T02:54:50;100783.13;;;7.46;100.00
46718;BME280;32448;44.960;-0.698;2023-04-20T02:57:17;100791.66;;;7.42;100.00
46718;BME280;32448;44.960;-0.698;2023-04-20T02:59:44;100782.06;;;7.41;100.00
46718;BME280;32448;44.960;-0.698;2023-04-20T03:02:19;100793.25;;;7.37;100.00
46718;BME280;32448;44.960;-0.698;2023-04-20T03:04:46;100783.63;;;7.35;100.00
46718;BME280;32448;44.960;-0.698;2023-04-20T03:07:23;100782.75;;;7.34;100.00
46718;BME280;32448;44.960;-0.698;2023-04-20T03:09:51;100780.25;;;7.37;100.00
46718;BME280;32448;44.960;-0.698;2023-04-20T03:12:41;100790.38;;;7.28;100.00
46718;BME280;32448;44.960;-0.698;2023-04-20T03:15:26;100791.00;;;7.21;100.00
46718;BME280;32448;44.960;-0.698;2023-04-20T03:18:14;100782.25;;;7.17;100.00
46718;BME280;32448;44.960;-0.698;2023-04-20T03:20:41;100791.88;;;7.21;100.00
46718;BME280;32448;44.960;-0.698;2023-04-20T03:23:08;100786.69;;;7.21;100.00
46718;BME280;32448;44.960;-0.698;2023-04-20T03:25:36;100790.94;;;7.19;100.00
46718;BME280;32448;44.960;-0.698;2023-04-20T03:28:07;100789.19;;;7.18;100.00
46718;BME280;32448;44.960;-0.698;2023-04-20T03:30:36;100780.59;;;7.21;100.00
46718;BME280;32448;44.960;-0.698;2023-04-20T03:33:14;100782.28;;;7.19;100.00
46718;BME280;32448;44.960;-0.698;2023-04-20T03:35:41;100779.66;;;7.19;100.00
46718;BME280;32448;44.960;-0.698;2023-04-20T03:38:09;100776.41;;;7.24;100.00
46718;BME280;32448;44.960;-0.698;2023-04-20T03:40:36;100785.72;;;7.18;100.00
46718;BME280;32448;44.960;-0.698;2023-04-20T03:43:03;100783.97;;;7.18;100.00
46718;BME280;32448;44.960;-0.698;2023-04-20T03:45:30;100779.56;;;7.14;100.00
46718;BME280;32448;44.960;-0.698;2023-04-20T03:47:57;100770.09;;;7.16;100.00
46718;BME280;32448;44.960;-0.698;2023-04-20T03:50:25;100772.69;;;7.16;100.00
46718;BME280;32448;44.960;-0.698;2023-04-20T03:52:52;100771.09;;;7.21;100.00
46718;BME280;32448;44.960;-0.698;2023-04-20T03:55:20;100761.41;;;7.16;100.00
46718;BME280;32448;44.960;-0.698;2023-04-20T03:57:53;100765.84;;;7.20;100.00
46718;BME280;32448;44.960;-0.698;2023-04-20T04:00:21;100763.19;;;7.18;100.00
46718;BME280;32448;44.960;-0.698;2023-04-20T04:02:55;100758.72;;;7.13;100.00
46718;BME280;32448;44.960;-0.698;2023-04-20T04:05:26;100754.50;;;7.16;100.00
46718;BME280;32448;44.960;-0.698;2023-04-20T04:07:53;100759.59;;;7.13;100.00
46718;BME280;32448;44.960;-0.698;2023-04-20T04:10:20;100764.47;;;7.03;100.00
46718;BME280;32448;44.960;-0.698;2023-04-20T04:12:48;100760.88;;;6.99;100.00
46718;BME280;32448;44.960;-0.698;2023-04-20T04:15:15;100754.94;;;7.03;100.00
46718;BME280;32448;44.960;-0.698;2023-04-20T04:17:52;100754.94;;;7.03;100.00
46718;BME280;32448;44.960;-0.698;2023-04-20T04:20:20;100752.56;;;7.11;100.00
46718;BME280;32448;44.960;-0.698;2023-04-20T04:22:47;100753.47;;;7.11;100.00
46718;BME280;32448;44.960;-0.698;2023-04-20T04:25:28;100758.53;;;7.07;100.00
46718;BME280;32448;44.960;-0.698;2023-04-20T04:27:59;100763.69;;;7.05;100.00
46718;BME280;32448;44.960;-0.698;2023-04-20T04:30:28;100759.25;;;7.03;100.00
46718;BME280;32448;44.960;-0.698;2023-04-20T04:32:55;100749.03;;;7.09;100.00
46718;BME280;32448;44.960;-0.698;2023-04-20T04:35:23;100760.94;;;7.01;100.00
46718;BME280;32448;44.960;-0.698;2023-04-20T04:37:50;100758.28;;;6.99;100.00
46718;BME280;32448;44.960;-0.698;2023-04-20T04:40:19;100740.84;;;6.95;100.00
46718;BME280;32448;44.960;-0.698;2023-04-20T04:42:48;100759.06;;;6.97;100.00
46718;BME280;32448;44.960;-0.698;2023-04-20T04:45:17;100764.25;;;6.97;100.00
46718;BME280;32448;44.960;-0.698;2023-04-20T04:47:44;100755.44;;;6.91;100.00
46718;BME280;32448;44.960;-0.698;2023-04-20T04:50:12;100750.44;;;6.98;100.00
46718;BME280;32448;44.960;-0.698;2023-04-20T04:52:39;100755.56;;;6.94;100.00
46718;BME280;32448;44.960;-0.698;2023-04-20T04:55:06;100757.31;;;6.96;100.00
46718;BME280;32448;44.960;-0.698;2023-04-20T04:57:34;100756.44;;;6.95;100.00
46718;BME280;32448;44.960;-0.698;2023-04-20T05:00:02;100763.41;;;6.98;100.00
46718;BME280;32448;44.960;-0.698;2023-04-20T05:02:32;100760.88;;;6.99;100.00
46718;BME280;32448;44.960;-0.698;2023-04-20T05:04:59;100765.13;;;6.97;100.00
46718;BME280;32448;44.960;-0.698;2023-04-20T05:07:27;100761.66;;;6.97;100.00
46718;BME280;32448;44.960;-0.698;2023-04-20T05:09:54;100755.56;;;6.96;100.00
46718;BME280;32448;44.960;-0.698;2023-04-20T05:12:21;100747.09;;;7.02;100.00
46718;BME280;32448;44.960;-0.698;2023-04-20T05:14:48;100761.16;;;7.08;100.00
46718;BME280;32448;44.960;-0.698;2023-04-20T05:17:15;100756.09;;;7.13;100.00
46718;BME280;32448;44.960;-0.698;2023-04-20T05:19:42;100746.91;;;7.24;100.00
46718;BME280;32448;44.960;-0.698;2023-04-20T05:22:09;100753.47;;;7.41;100.00
46718;BME280;32448;44.960;-0.698;2023-04-20T05:24:36;100752.91;;;7.51;100.00
46718;BME280;32448;44.960;-0.698;2023-04-20T05:27:03;100757.38;;;7.55;100.00
46718;BME280;32448;44.960;-0.698;2023-04-20T05:29:30;100757.28;;;7.52;100.00
46718;BME280;32448;44.960;-0.698;2023-04-20T05:31:58;100772.03;;;7.53;100.00
46718;BME280;32448;44.960;-0.698;2023-04-20T05:34:25;100770.31;;;7.54;100.00
46718;BME280;32448;44.960;-0.698;2023-04-20T05:36:52;100769.44;;;7.53;100.00
46718;BME280;32448;44.960;-0.698;2023-04-20T05:39:20;100768.69;;;7.57;100.00
46718;BME280;32448;44.960;-0.698;2023-04-20T05:41:47;100766.56;;;7.74;100.00
46718;BME280;32448;44.960;-0.698;2023-04-20T05:44:14;100766.06;;;7.87;100.00
46718;BME280;32448;44.960;-0.698;2023-04-20T05:46:41;100759.41;;;7.97;100.00
46718;BME280;32448;44.960;-0.698;2023-04-20T05:49:08;100752.66;;;8.03;100.00
46718;BME280;32448;44.960;-0.698;2023-04-20T05:51:35;100766.94;;;8.19;100.00
46718;BME280;32448;44.960;-0.698;2023-04-20T05:54:02;100778.63;;;8.33;100.00
46718;BME280;32448;44.960;-0.698;2023-04-20T05:56:29;100769.22;;;8.38;100.00
46718;BME280;32448;44.960;-0.698;2023-04-20T05:58:56;100767.09;;;8.57;100.00
46718;BME280;32448;44.960;-0.698;2023-04-20T06:01:25;100768.94;;;8.62;100.00
46718;BME280;32448;44.960;-0.698;2023-04-20T06:03:52;100769.09;;;8.68;100.00
46718;BME280;32448;44.960;-0.698;2023-04-20T06:06:19;100774.50;;;8.76;100.00
46718;BME280;32448;44.960;-0.698;2023-04-20T06:08:46;100774.66;;;8.82;100.00
46718;BME280;32448;44.960;-0.698;2023-04-20T06:11:13;100769.53;;;8.87;100.00
46718;BME280;32448;44.960;-0.698;2023-04-20T06:13:40;100774.03;;;8.92;100.00
46718;BME280;32448;44.960;-0.698;2023-04-20T06:16:07;100789.88;;;9.01;100.00
46718;BME280;32448;44.960;-0.698;2023-04-20T06:18:36;100777.94;;;9.11;100.00
46718;BME280;32448;44.960;-0.698;2023-04-20T06:21:03;100765.28;;;9.29;100.00
46718;BME280;32448;44.960;-0.698;2023-04-20T06:23:30;100782.44;;;9.57;100.00
46718;BME280;32448;44.960;-0.698;2023-04-20T06:25:57;100779.28;;;9.72;100.00
46718;BME280;32448;44.960;-0.698;2023-04-20T06:28:25;100767.03;;;9.69;100.00
46718;BME280;32448;44.960;-0.698;2023-04-20T06:30:52;100765.34;;;9.71;100.00
46718;BME280;32448;44.960;-0.698;2023-04-20T06:33:19;100776.06;;;9.86;100.00
46718;BME280;32448;44.960;-0.698;2023-04-20T06:35:47;100778.31;;;10.12;100.00
46718;BME280;32448;44.960;-0.698;2023-04-20T06:38:14;100768.06;;;10.21;100.00
46718;BME280;32448;44.960;-0.698;2023-04-20T06:40:41;100766.38;;;10.23;100.00
46718;BME280;32448;44.960;-0.698;2023-04-20T06:43:08;100773.50;;;10.33;100.00
46718;BME280;32448;44.960;-0.698;2023-04-20T06:45:35;100766.69;;;10.41;100.00
46718;BME280;32448;44.960;-0.698;2023-04-20T06:48:02;100766.78;;;10.47;100.00
46718;BME280;32448;44.960;-0.698;2023-04-20T06:50:29;100774.91;;;10.64;100.00
46718;BME280;32448;44.960;-0.698;2023-04-20T06:52:56;100776.78;;;10.71;100.00
46718;BME280;32448;44.960;-0.698;2023-04-20T06:55:23;100773.47;;;10.83;100.00
46718;BME280;32448;44.960;-0.698;2023-04-20T06:57:50;100775.38;;;10.94;100.00
46718;BME280;32448;44.960;-0.698;2023-04-20T07:00:18;100783.56;;;11.14;100.00
46718;BME280;32448;44.960;-0.698;2023-04-20T07:02:49;100780.13;;;11.20;100.00
46718;BME280;32448;44.960;-0.698;2023-04-20T07:05:17;100768.84;;;11.22;100.00
46718;BME280;32448;44.960;-0.698;2023-04-20T07:07:44;100772.69;;;11.50;100.00
46718;BME280;32448;44.960;-0.698;2023-04-20T07:10:12;100765.75;;;11.52;100.00
46718;BME280;32448;44.960;-0.698;2023-04-20T07:12:39;100766.63;;;11.53;100.00
46718;BME280;32448;44.960;-0.698;2023-04-20T07:15:09;100773.78;;;11.66;100.00
46718;BME280;32448;44.960;-0.698;2023-04-20T07:17:36;100770.47;;;11.78;100.00
46718;BME280;32448;44.960;-0.698;2023-04-20T07:20:03;100770.59;;;11.87;100.00
46718;BME280;32448;44.960;-0.698;2023-04-20T07:22:34;100765.44;;;11.93;100.00
46718;BME280;32448;44.960;-0.698;2023-04-20T07:25:03;100757.69;;;12.07;100.00
46718;BME280;32448;44.960;-0.698;2023-04-20T07:27:34;100750.75;;;12.10;100.00
46718;BME280;32448;44.960;-0.698;2023-04-20T07:30:02;100755.19;;;12.17;100.00
46718;BME280;32448;44.960;-0.698;2023-04-20T07:32:32;100762.28;;;12.26;100.00
46718;BME280;32448;44.960;-0.698;2023-04-20T07:34:59;100766.72;;;12.33;100.00
46718;BME280;32448;44.960;-0.698;2023-04-20T07:37:26;100760.78;;;12.54;100.00
46718;BME280;32448;44.960;-0.698;2023-04-20T07:39:53;100758.16;;;12.54;100.00
46718;BME280;32448;44.960;-0.698;2023-04-20T07:42:21;100757.34;;;12.62;100.00
46718;BME280;32448;44.960;-0.698;2023-04-20T07:44:48;100760.88;;;12.66;100.00
46718;BME280;32448;44.960;-0.698;2023-04-20T07:47:15;100750.56;;;12.89;100.00
46718;BME280;32448;44.960;-0.698;2023-04-20T07:49:42;100744.47;;;12.94;100.00
46718;BME280;32448;44.960;-0.698;2023-04-20T07:52:10;100746.31;;;13.03;100.00
46718;BME280;32448;44.960;-0.698;2023-04-20T07:54:43;100747.22;;;13.09;100.00
46718;BME280;32448;44.960;-0.698;2023-04-20T07:57:10;100756.97;;;13.27;100.00
46718;BME280;32448;44.960;-0.698;2023-04-20T07:59:38;100752.72;;;13.46;100.00
46718;BME280;32448;44.960;-0.698;2023-04-20T08:02:06;100751.84;;;13.50;100.00
46718;BME280;32448;44.960;-0.698;2023-04-20T08:04:36;100744.91;;;13.72;100.00
46718;BME280;32448;44.960;-0.698;2023-04-20T08:07:04;100750.22;;;13.82;100.00
46718;BME280;32448;44.960;-0.698;2023-04-20T08:09:31;100750.25;;;13.95;100.00
46718;BME280;32448;44.960;-0.698;2023-04-20T08:11:58;100750.31;;;14.10;100.00
46718;BME280;32448;44.960;-0.698;2023-04-20T08:14:26;100753.81;;;14.18;100.00
46718;BME280;32448;44.960;-0.698;2023-04-20T08:16:53;100760.91;;;14.45;100.00
46718;BME280;32448;44.960;-0.698;2023-04-20T08:19:20;100774.97;;;14.67;100.00
46718;BME280;32448;44.960;-0.698;2023-04-20T08:21:47;100765.31;;;14.76;100.00
46718;BME280;32448;44.960;-0.698;2023-04-20T08:24:14;100767.03;;;14.70;100.00
46718;BME280;32448;44.960;-0.698;2023-04-20T08:26:42;100753.91;;;14.68;100.00
46718;BME280;32448;44.960;-0.698;2023-04-20T08:29:09;100764.41;;;14.70;100.00
46718;BME280;32448;44.960;-0.698;2023-04-20T08:31:36;100762.66;;;14.96;100.00
46718;BME280;32448;44.960;-0.698;2023-04-20T08:34:03;100764.38;;;15.17;100.00
46718;BME280;32448;44.960;-0.698;2023-04-20T08:36:30;100761.75;;;15.15;100.00
46718;BME280;32448;44.960;-0.698;2023-04-20T08:39:05;100753.81;;;15.29;100.00
46718;BME280;32448;44.960;-0.698;2023-04-20T08:41:33;100757.34;;;15.31;100.00
46718;BME280;32448;44.960;-0.698;2023-04-20T08:44:00;100752.91;;;15.36;100.00
46718;BME280;32448;44.960;-0.698;2023-04-20T08:46:28;100758.19;;;15.45;100.00
46718;BME280;32448;44.960;-0.698;2023-04-20T08:48:55;100749.38;;;15.55;100.00
46718;BME280;32448;44.960;-0.698;2023-04-20T08:51:23;100744.09;;;15.60;100.00
46718;BME280;32448;44.960;-0.698;2023-04-20T08:53:50;100746.66;;;15.74;100.00
46718;BME280;32448;44.960;-0.698;2023-04-20T08:56:18;100734.31;;;15.80;100.00
46718;BME280;32448;44.960;-0.698;2023-04-20T08:58:45;100725.44;;;16.01;100.00
46718;BME280;32448;44.960;-0.698;2023-04-20T09:01:13;100728.91;;;16.11;100.00
46718;BME280;32448;44.960;-0.698;2023-04-20T09:03:45;100735.78;;;16.34;100.00
46718;BME280;32448;44.960;-0.698;2023-04-20T09:06:16;100721.56;;;16.52;100.00
46718;BME280;32448;44.960;-0.698;2023-04-20T09:08:43;100725.09;;;16.47;100.00
46718;BME280;32448;44.960;-0.698;2023-04-20T09:11:24;100725.88;;;16.58;100.00
46718;BME280;32448;44.960;-0.698;2023-04-20T09:14:02;100724.03;;;16.73;100.00
46718;BME280;32448;44.960;-0.698;2023-04-20T09:16:31;100726.50;;;16.93;100.00
46718;BME280;32448;44.960;-0.698;2023-04-20T09:18:59;100722.16;;;16.88;100.00
46718;BME280;32448;44.960;-0.698;2023-04-20T09:21:26;100721.91;;;17.12;100.00
46718;BME280;32448;44.960;-0.698;2023-04-20T09:26:30;100728.66;;;17.39;100.00
46718;BME280;32448;44.960;-0.698;2023-04-20T09:28:57;100732.16;;;17.41;100.00
46718;BME280;32448;44.960;-0.698;2023-04-20T09:31:24;100736.34;;;17.57;100.00
46718;BME280;32448;44.960;-0.698;2023-04-20T09:33:57;100729.25;;;17.67;100.00
46718;BME280;32448;44.960;-0.698;2023-04-20T09:36:47;100724.75;;;17.72;100.00
46718;BME280;32448;44.960;-0.698;2023-04-20T09:39:13;100726.47;;;17.76;100.00
46718;BME280;32448;44.960;-0.698;2023-04-20T09:41:41;100724.63;;;17.81;100.00
46718;BME280;32448;44.960;-0.698;2023-04-20T09:44:09;100730.75;;;17.85;100.00
46718;BME280;32448;44.960;-0.698;2023-04-20T09:46:37;100727.13;;;17.90;100.00
46718;BME280;32448;44.960;-0.698;2023-04-20T09:49:06;100727.03;;;17.99;100.00
46718;BME280;32448;44.960;-0.698;2023-04-20T09:51:34;100723.59;;;17.91;100.00
46718;BME280;32448;44.960;-0.698;2023-04-20T09:54:02;100721.63;;;18.07;100.00
46718;BME280;32448;44.960;-0.698;2023-04-20T09:56:30;100718.16;;;18.02;100.00
46718;BME280;32448;44.960;-0.698;2023-04-20T09:58:58;100719.03;;;18.01;100.00
46718;BME280;32448;44.960;-0.698;2023-04-20T10:01:27;100721.47;;;18.16;100.00
46718;BME280;32448;44.960;-0.698;2023-04-20T10:03:56;100724.91;;;18.23;100.00
46718;BME280;32448;44.960;-0.698;2023-04-20T10:06:26;100717.09;;;18.13;100.00
46718;BME280;32448;44.960;-0.698;2023-04-20T10:08:56;100720.28;;;18.35;100.00
46718;BME280;32448;44.960;-0.698;2023-04-20T10:11:24;100711.44;;;18.38;100.00
46718;BME280;32448;44.960;-0.698;2023-04-20T10:14:01;100714.72;;;18.53;100.00
46718;BME280;32448;44.960;-0.698;2023-04-20T10:16:39;100703.19;;;18.58;100.00
46718;BME280;32448;44.960;-0.698;2023-04-20T10:19:06;100703.91;;;18.67;100.00
46718;BME280;32448;44.960;-0.698;2023-04-20T10:21:44;100705.75;;;18.65;100.00
46718;BME280;32448;44.960;-0.698;2023-04-20T10:24:11;100709.59;;;18.44;100.00
46718;BME280;32448;44.960;-0.698;2023-04-20T10:26:40;100704.84;;;18.66;100.00
46718;BME280;32448;44.960;-0.698;2023-04-20T10:29:08;100702.69;;;18.88;100.00
46718;BME280;32448;44.960;-0.698;2023-04-20T10:31:38;100698.97;;;18.98;100.00
46718;BME280;32448;44.960;-0.698;2023-04-20T10:34:06;100700.31;;;19.19;100.00
46718;BME280;32448;44.960;-0.698;2023-04-20T10:36:34;100699.44;;;19.18;100.00
46718;BME280;32448;44.960;-0.698;2023-04-20T10:39:12;100698.13;;;18.96;100.00
46718;BME280;32448;44.960;-0.698;2023-04-20T10:41:52;100699.72;;;19.03;100.00
46718;BME280;32448;44.960;-0.698;2023-04-20T10:44:20;100689.78;;;19.16;100.00
46718;BME280;32448;44.960;-0.698;2023-04-20T10:46:48;100692.28;;;19.23;100.00
46718;BME280;32448;44.960;-0.698;2023-04-20T10:49:16;100686.72;;;19.36;100.00
46718;BME280;32448;44.960;-0.698;2023-04-20T10:51:45;100683.88;;;19.45;100.00
46718;BME280;32448;44.960;-0.698;2023-04-20T10:54:13;100681.38;;;19.39;100.00
46718;BME280;32448;44.960;-0.698;2023-04-20T10:56:44;100677.47;;;19.56;100.00
46718;BME280;32448;44.960;-0.698;2023-04-20T10:59:12;100675.81;;;19.92;100.00
46718;BME280;32448;44.960;-0.698;2023-04-20T11:01:39;100678.81;;;20.14;100.00
46718;BME280;32448;44.960;-0.698;2023-04-20T11:04:08;100680.28;;;19.89;100.00
46718;BME280;32448;44.960;-0.698;2023-04-20T11:06:37;100679.22;;;19.99;100.00
46718;BME280;32448;44.960;-0.698;2023-04-20T11:09:21;100677.25;;;20.06;100.00
46718;BME280;32448;44.960;-0.698;2023-04-20T11:11:57;100674.25;;;20.21;100.00
46718;BME280;32448;44.960;-0.698;2023-04-20T11:14:24;100679.75;;;20.50;100.00
46718;BME280;32448;44.960;-0.698;2023-04-20T11:16:51;100672.25;;;20.30;100.00
46718;BME280;32448;44.960;-0.698;2023-04-20T11:19:26;100676.16;;;20.14;100.00
46718;BME280;32448;44.960;-0.698;2023-04-20T11:21:54;100673.28;;;20.23;100.00
46718;BME280;32448;44.960;-0.698;2023-04-20T11:24:22;100682.63;;;20.41;100.00
46718;BME280;32448;44.960;-0.698;2023-04-20T11:26:50;100671.66;;;20.18;100.00
46718;BME280;32448;44.960;-0.698;2023-04-20T11:29:27;100682.75;;;20.37;100.00
46718;BME280;32448;44.960;-0.698;2023-04-20T11:31:54;100670.03;;;20.49;100.00
46718;BME280;32448;44.960;-0.698;2023-04-20T11:34:25;100665.97;;;20.68;100.00
46718;BME280;32448;44.960;-0.698;2023-04-20T11:36:54;100664.13;;;20.72;100.00
46718;BME280;32448;44.960;-0.698;2023-04-20T11:39:25;100660.06;;;20.57;100.00
46718;BME280;32448;44.960;-0.698;2023-04-20T11:41:53;100670.88;;;20.51;100.00
46718;BME280;32448;44.960;-0.698;2023-04-20T11:44:20;100656.75;;;20.49;100.00
46718;BME280;32448;44.960;-0.698;2023-04-20T11:46:50;100652.44;;;20.45;100.00
46718;BME280;32448;44.960;-0.698;2023-04-20T11:49:24;100661.56;;;20.67;100.00
46718;BME280;32448;44.960;-0.698;2023-04-20T11:51:52;100659.09;;;20.61;100.00
46718;BME280;32448;44.960;-0.698;2023-04-20T11:54:19;100650.22;;;20.62;100.00
46718;BME280;32448;44.960;-0.698;2023-04-20T11:56:47;100638.25;;;20.79;100.00
46718;BME280;32448;44.960;-0.698;2023-04-20T11:59:14;100644.38;;;20.82;100.00
46718;BME280;32448;44.960;-0.698;2023-04-20T12:01:46;100637.69;;;20.67;100.00
46718;BME280;32448;44.960;-0.698;2023-04-20T12:04:13;100626.91;;;20.74;100.00
46718;BME280;32448;44.960;-0.698;2023-04-20T12:06:42;100632.41;;;20.66;100.00
46718;BME280;32448;44.960;-0.698;2023-04-20T12:09:09;100633.78;;;20.81;100.00
46718;BME280;32448;44.960;-0.698;2023-04-20T12:11:37;100631.44;;;20.68;100.00
46718;BME280;32448;44.960;-0.698;2023-04-20T12:14:04;100626.66;;;20.83;100.00
46718;BME280;32448;44.960;-0.698;2023-04-20T12:16:31;100626.44;;;20.90;100.00
46718;BME280;32448;44.960;-0.698;2023-04-20T12:18:59;100625.28;;;20.99;98.09
46718;BME280;32448;44.960;-0.698;2023-04-20T12:21:26;100625.47;;;20.93;100.00
46718;BME280;32448;44.960;-0.698;2023-04-20T12:23:53;100623.19;;;21.10;100.00
46718;BME280;32448;44.960;-0.698;2023-04-20T12:26:22;100619.63;;;21.11;100.00
46718;BME280;32448;44.960;-0.698;2023-04-20T12:29:03;100621.88;;;21.26;99.88
46718;BME280;32448;44.960;-0.698;2023-04-20T12:31:34;100619.47;;;21.19;100.00
46718;BME280;32448;44.960;-0.698;2023-04-20T12:34:03;100618.81;;;21.40;100.00
46718;BME280;32448;44.960;-0.698;2023-04-20T12:36:31;100621.44;;;21.41;97.04
46718;BME280;32448;44.960;-0.698;2023-04-20T12:39:00;100619.66;;;21.42;82.60
46718;BME280;32448;44.960;-0.698;2023-04-20T12:41:28;100626.69;;;21.43;100.00
46718;BME280;32448;44.960;-0.698;2023-04-20T12:43:59;100632.88;;;21.43;96.95